Terminal Aerodrome Forecast
Issued by NWS Billings, MT

Home | Current Version | Previous Version | Text Only | Print | Product List | Glossary Off
Versions: 1 2 3 4 5 6 7 8 9 10 11 12 13 14 15 16 17 18

000
FTUS45 KBYZ 301602 AAA
TAFMLS
TAF AMD
KMLS 301602Z 3016/0112 29007KT P6SM VCSH OVC016
     FM010000 VRB05KT P6SM SCT150
     FM010900 VRB05KT P6SM SCT025=

USA.gov is the U.S. government's official web portal to all federal, state and local government web resources and services.